sensor_id;sensor_type;location;lat;lon;timestamp;P1;durP1;ratioP1;P2;durP2;ratioP2
63807;SDS011;49961;43.970;22.868;2024-03-23T00:54:02;4.82;;;2.90;;
63807;SDS011;49961;43.970;22.868;2024-03-23T00:55:03;2.83;;;1.70;;
63807;SDS011;49961;43.970;22.868;2024-03-23T00:56:04;4.03;;;2.20;;
63807;SDS011;49961;43.970;22.868;2024-03-23T00:57:05;3.53;;;2.10;;
63807;SDS011;49961;43.970;22.868;2024-03-23T00:58:05;6.27;;;2.20;;
63807;SDS011;49961;43.970;22.868;2024-03-23T00:59:05;4.00;;;2.20;;
63807;SDS011;49961;43.970;22.868;2024-03-23T01:00:06;4.90;;;2.43;;
63807;SDS011;49961;43.970;22.868;2024-03-23T01:01:10;4.90;;;2.30;;
63807;SDS011;49961;43.970;22.868;2024-03-23T01:02:10;3.87;;;2.33;;
63807;SDS011;49961;43.970;22.868;2024-03-23T01:03:11;3.27;;;2.03;;
63807;SDS011;49961;43.970;22.868;2024-03-23T01:04:11;4.83;;;2.63;;
63807;SDS011;49961;43.970;22.868;2024-03-23T01:05:12;4.60;;;3.03;;
63807;SDS011;49961;43.970;22.868;2024-03-23T01:06:12;5.20;;;2.90;;
63807;SDS011;49961;43.970;22.868;2024-03-23T01:07:13;4.87;;;2.80;;
63807;SDS011;49961;43.970;22.868;2024-03-23T01:08:13;7.07;;;3.10;;
63807;SDS011;49961;43.970;22.868;2024-03-23T01:09:14;6.97;;;3.63;;
63807;SDS011;49961;43.970;22.868;2024-03-23T01:10:15;7.40;;;3.73;;
63807;SDS011;49961;43.970;22.868;2024-03-23T01:11:15;7.53;;;3.53;;
63807;SDS011;49961;43.970;22.868;2024-03-23T01:12:16;3.50;;;2.23;;
63807;SDS011;49961;43.970;22.868;2024-03-23T01:13:16;3.60;;;2.10;;
63807;SDS011;49961;43.970;22.868;2024-03-23T01:14:20;4.95;;;1.85;;
63807;SDS011;49961;43.970;22.868;2024-03-23T01:15:21;4.43;;;2.20;;
63807;SDS011;49961;43.970;22.868;2024-03-23T01:16:21;3.67;;;1.97;;
63807;SDS011;49961;43.970;22.868;2024-03-23T01:17:22;5.07;;;2.20;;
63807;SDS011;49961;43.970;22.868;2024-03-23T01:18:23;3.47;;;2.13;;
63807;SDS011;49961;43.970;22.868;2024-03-23T01:19:26;3.95;;;2.17;;
63807;SDS011;49961;43.970;22.868;2024-03-23T01:20:26;4.50;;;2.23;;
63807;SDS011;49961;43.970;22.868;2024-03-23T01:21:27;8.70;;;3.13;;
63807;SDS011;49961;43.970;22.868;2024-03-23T01:22:28;5.93;;;3.37;;
63807;SDS011;49961;43.970;22.868;2024-03-23T01:23:28;6.60;;;2.50;;
63807;SDS011;49961;43.970;22.868;2024-03-23T01:24:29;4.87;;;2.10;;
63807;SDS011;49961;43.970;22.868;2024-03-23T01:25:29;2.60;;;1.80;;
63807;SDS011;49961;43.970;22.868;2024-03-23T01:26:30;6.03;;;3.50;;
63807;SDS011;49961;43.970;22.868;2024-03-23T01:27:30;4.43;;;2.27;;
63807;SDS011;49961;43.970;22.868;2024-03-23T01:28:31;5.00;;;2.77;;
63807;SDS011;49961;43.970;22.868;2024-03-23T01:29:31;5.43;;;2.70;;
63807;SDS011;49961;43.970;22.868;2024-03-23T01:30:34;4.30;;;2.80;;
63807;SDS011;49961;43.970;22.868;2024-03-23T01:31:35;5.43;;;2.58;;
63807;SDS011;49961;43.970;22.868;2024-03-23T01:32:35;6.07;;;3.50;;
63807;SDS011;49961;43.970;22.868;2024-03-23T01:33:36;5.57;;;2.50;;
63807;SDS011;49961;43.970;22.868;2024-03-23T01:34:37;5.50;;;2.90;;
63807;SDS011;49961;43.970;22.868;2024-03-23T01:35:37;4.90;;;2.80;;
63807;SDS011;49961;43.970;22.868;2024-03-23T01:36:38;4.83;;;2.50;;
63807;SDS011;49961;43.970;22.868;2024-03-23T01:37:39;4.37;;;2.27;;
63807;SDS011;49961;43.970;22.868;2024-03-23T01:38:39;6.27;;;2.57;;
63807;SDS011;49961;43.970;22.868;2024-03-23T01:39:40;5.43;;;2.80;;
63807;SDS011;49961;43.970;22.868;2024-03-23T01:40:40;6.57;;;2.90;;
63807;SDS011;49961;43.970;22.868;2024-03-23T01:41:41;4.00;;;2.60;;
63807;SDS011;49961;43.970;22.868;2024-03-23T01:42:42;4.88;;;2.70;;
63807;SDS011;49961;43.970;22.868;2024-03-23T01:43:55;5.32;;;2.72;;
63807;SDS011;49961;43.970;22.868;2024-03-23T01:44:56;6.35;;;2.85;;
63807;SDS011;49961;43.970;22.868;2024-03-23T01:45:57;4.53;;;2.40;;
63807;SDS011;49961;43.970;22.868;2024-03-23T01:46:57;6.83;;;2.63;;
63807;SDS011;49961;43.970;22.868;2024-03-23T01:47:58;7.10;;;2.37;;
63807;SDS011;49961;43.970;22.868;2024-03-23T01:48:59;4.80;;;2.33;;
63807;SDS011;49961;43.970;22.868;2024-03-23T01:50:00;8.13;;;2.37;;
63807;SDS011;49961;43.970;22.868;2024-03-23T01:51:01;5.25;;;2.83;;
63807;SDS011;49961;43.970;22.868;2024-03-23T01:52:02;6.43;;;3.10;;
63807;SDS011;49961;43.970;22.868;2024-03-23T01:53:02;7.93;;;3.33;;
63807;SDS011;49961;43.970;22.868;2024-03-23T01:54:06;5.22;;;2.72;;
63807;SDS011;49961;43.970;22.868;2024-03-23T01:55:07;8.73;;;3.05;;
63807;SDS011;49961;43.970;22.868;2024-03-23T01:56:08;17.65;;;4.15;;
63807;SDS011;49961;43.970;22.868;2024-03-23T01:57:09;7.67;;;3.53;;
63807;SDS011;49961;43.970;22.868;2024-03-23T01:58:10;11.73;;;3.50;;
63807;SDS011;49961;43.970;22.868;2024-03-23T01:59:10;14.07;;;2.97;;
63807;SDS011;49961;43.970;22.868;2024-03-23T02:00:11;8.17;;;3.13;;
63807;SDS011;49961;43.970;22.868;2024-03-23T02:01:12;7.57;;;3.33;;
63807;SDS011;49961;43.970;22.868;2024-03-23T02:02:13;9.23;;;2.90;;
63807;SDS011;49961;43.970;22.868;2024-03-23T02:03:23;8.53;;;2.50;;
63807;SDS011;49961;43.970;22.868;2024-03-23T02:04:24;7.10;;;3.20;;
63807;SDS011;49961;43.970;22.868;2024-03-23T02:05:25;5.43;;;2.87;;
63807;SDS011;49961;43.970;22.868;2024-03-23T02:06:25;4.87;;;2.43;;
63807;SDS011;49961;43.970;22.868;2024-03-23T02:07:26;7.43;;;3.10;;
63807;SDS011;49961;43.970;22.868;2024-03-23T02:08:27;4.22;;;2.33;;
63807;SDS011;49961;43.970;22.868;2024-03-23T02:09:27;3.47;;;2.10;;
63807;SDS011;49961;43.970;22.868;2024-03-23T02:10:28;5.73;;;2.80;;
63807;SDS011;49961;43.970;22.868;2024-03-23T02:11:28;4.10;;;2.13;;
63807;SDS011;49961;43.970;22.868;2024-03-23T02:12:29;5.50;;;2.70;;
63807;SDS011;49961;43.970;22.868;2024-03-23T02:13:29;9.00;;;2.73;;
63807;SDS011;49961;43.970;22.868;2024-03-23T02:14:31;4.93;;;2.22;;
63807;SDS011;49961;43.970;22.868;2024-03-23T02:15:32;3.60;;;2.07;;
63807;SDS011;49961;43.970;22.868;2024-03-23T02:16:33;4.70;;;2.60;;
63807;SDS011;49961;43.970;22.868;2024-03-23T02:17:34;4.03;;;2.37;;
63807;SDS011;49961;43.970;22.868;2024-03-23T02:18:35;6.00;;;2.47;;
63807;SDS011;49961;43.970;22.868;2024-03-23T02:19:36;6.40;;;2.70;;
63807;SDS011;49961;43.970;22.868;2024-03-23T02:20:37;4.97;;;2.30;;
63807;SDS011;49961;43.970;22.868;2024-03-23T02:21:38;3.78;;;2.47;;
63807;SDS011;49961;43.970;22.868;2024-03-23T02:22:38;5.70;;;3.27;;
63807;SDS011;49961;43.970;22.868;2024-03-23T02:23:39;7.10;;;3.17;;
63807;SDS011;49961;43.970;22.868;2024-03-23T02:24:39;5.77;;;3.70;;
63807;SDS011;49961;43.970;22.868;2024-03-23T02:25:40;7.90;;;3.53;;
63807;SDS011;49961;43.970;22.868;2024-03-23T02:26:41;6.03;;;2.83;;
63807;SDS011;49961;43.970;22.868;2024-03-23T02:27:41;3.50;;;2.10;;
63807;SDS011;49961;43.970;22.868;2024-03-23T02:28:42;6.57;;;2.90;;
63807;SDS011;49961;43.970;22.868;2024-03-23T02:29:42;4.03;;;2.60;;
63807;SDS011;49961;43.970;22.868;2024-03-23T02:30:43;4.87;;;2.53;;
63807;SDS011;49961;43.970;22.868;2024-03-23T02:31:43;3.70;;;2.50;;
63807;SDS011;49961;43.970;22.868;2024-03-23T02:32:44;4.53;;;1.80;;
63807;SDS011;49961;43.970;22.868;2024-03-23T02:33:44;4.53;;;2.50;;
63807;SDS011;49961;43.970;22.868;2024-03-23T02:34:45;3.43;;;2.07;;
63807;SDS011;49961;43.970;22.868;2024-03-23T02:35:45;5.03;;;3.00;;
63807;SDS011;49961;43.970;22.868;2024-03-23T02:36:46;3.97;;;2.63;;
63807;SDS011;49961;43.970;22.868;2024-03-23T02:37:47;3.33;;;2.10;;
63807;SDS011;49961;43.970;22.868;2024-03-23T02:38:50;6.13;;;2.63;;
63807;SDS011;49961;43.970;22.868;2024-03-23T02:39:51;4.40;;;2.30;;
63807;SDS011;49961;43.970;22.868;2024-03-23T02:40:51;6.20;;;2.87;;
63807;SDS011;49961;43.970;22.868;2024-03-23T02:41:52;5.10;;;1.93;;
63807;SDS011;49961;43.970;22.868;2024-03-23T02:42:52;3.77;;;2.23;;
63807;SDS011;49961;43.970;22.868;2024-03-23T02:43:53;6.17;;;2.77;;
63807;SDS011;49961;43.970;22.868;2024-03-23T02:44:54;4.80;;;2.40;;
63807;SDS011;49961;43.970;22.868;2024-03-23T02:45:54;5.77;;;3.07;;
63807;SDS011;49961;43.970;22.868;2024-03-23T02:46:55;3.87;;;2.13;;
63807;SDS011;49961;43.970;22.868;2024-03-23T02:47:55;3.47;;;2.37;;
63807;SDS011;49961;43.970;22.868;2024-03-23T02:48:56;7.40;;;2.43;;
63807;SDS011;49961;43.970;22.868;2024-03-23T02:49:57;3.70;;;2.20;;
63807;SDS011;49961;43.970;22.868;2024-03-23T02:50:58;4.13;;;2.20;;
63807;SDS011;49961;43.970;22.868;2024-03-23T02:51:58;3.30;;;1.87;;
63807;SDS011;49961;43.970;22.868;2024-03-23T02:52:59;4.30;;;2.17;;
63807;SDS011;49961;43.970;22.868;2024-03-23T02:53:59;3.07;;;1.90;;
63807;SDS011;49961;43.970;22.868;2024-03-23T02:55:00;4.40;;;2.17;;
63807;SDS011;49961;43.970;22.868;2024-03-23T02:56:02;5.45;;;2.60;;
63807;SDS011;49961;43.970;22.868;2024-03-23T02:57:03;3.65;;;2.03;;
63807;SDS011;49961;43.970;22.868;2024-03-23T02:58:04;4.03;;;2.47;;
63807;SDS011;49961;43.970;22.868;2024-03-23T02:59:05;5.97;;;2.53;;
63807;SDS011;49961;43.970;22.868;2024-03-23T03:00:05;4.53;;;1.90;;
63807;SDS011;49961;43.970;22.868;2024-03-23T03:01:07;7.72;;;2.42;;
63807;SDS011;49961;43.970;22.868;2024-03-23T03:02:07;5.13;;;2.40;;
63807;SDS011;49961;43.970;22.868;2024-03-23T03:03:08;4.87;;;2.20;;
63807;SDS011;49961;43.970;22.868;2024-03-23T03:04:09;4.83;;;2.40;;
63807;SDS011;49961;43.970;22.868;2024-03-23T03:05:09;5.60;;;2.73;;
63807;SDS011;49961;43.970;22.868;2024-03-23T03:06:11;4.68;;;2.47;;
63807;SDS011;49961;43.970;22.868;2024-03-23T03:07:11;3.83;;;2.10;;
63807;SDS011;49961;43.970;22.868;2024-03-23T03:08:12;3.33;;;2.37;;
63807;SDS011;49961;43.970;22.868;2024-03-23T03:09:12;6.63;;;2.40;;
63807;SDS011;49961;43.970;22.868;2024-03-23T03:10:13;4.67;;;2.10;;
63807;SDS011;49961;43.970;22.868;2024-03-23T03:11:13;5.10;;;2.33;;
63807;SDS011;49961;43.970;22.868;2024-03-23T03:12:14;5.77;;;2.30;;
63807;SDS011;49961;43.970;22.868;2024-03-23T03:13:14;8.07;;;2.43;;
63807;SDS011;49961;43.970;22.868;2024-03-23T03:14:15;5.20;;;2.50;;
63807;SDS011;49961;43.970;22.868;2024-03-23T03:15:15;4.50;;;2.03;;
63807;SDS011;49961;43.970;22.868;2024-03-23T03:16:16;3.83;;;2.10;;
63807;SDS011;49961;43.970;22.868;2024-03-23T03:17:16;6.03;;;2.90;;
63807;SDS011;49961;43.970;22.868;2024-03-23T03:18:17;6.83;;;2.30;;
63807;SDS011;49961;43.970;22.868;2024-03-23T03:19:17;5.17;;;2.20;;
63807;SDS011;49961;43.970;22.868;2024-03-23T03:20:18;4.57;;;2.63;;
63807;SDS011;49961;43.970;22.868;2024-03-23T03:21:18;6.67;;;2.90;;
63807;SDS011;49961;43.970;22.868;2024-03-23T03:22:19;4.80;;;2.60;;
63807;SDS011;49961;43.970;22.868;2024-03-23T03:23:19;3.00;;;2.03;;
63807;SDS011;49961;43.970;22.868;2024-03-23T03:24:20;4.60;;;2.70;;
63807;SDS011;49961;43.970;22.868;2024-03-23T03:25:21;4.25;;;2.60;;
63807;SDS011;49961;43.970;22.868;2024-03-23T03:26:22;5.20;;;2.60;;
63807;SDS011;49961;43.970;22.868;2024-03-23T03:27:23;3.67;;;2.15;;
63807;SDS011;49961;43.970;22.868;2024-03-23T03:28:24;4.85;;;2.88;;
63807;SDS011;49961;43.970;22.868;2024-03-23T03:29:26;4.65;;;2.42;;
63807;SDS011;49961;43.970;22.868;2024-03-23T03:30:34;4.57;;;2.30;;
63807;SDS011;49961;43.970;22.868;2024-03-23T03:31:34;4.47;;;2.60;;
63807;SDS011;49961;43.970;22.868;2024-03-23T03:32:35;5.53;;;2.83;;
63807;SDS011;49961;43.970;22.868;2024-03-23T03:33:35;6.77;;;2.80;;
63807;SDS011;49961;43.970;22.868;2024-03-23T03:34:36;5.57;;;2.67;;
63807;SDS011;49961;43.970;22.868;2024-03-23T03:35:36;3.90;;;2.30;;
63807;SDS011;49961;43.970;22.868;2024-03-23T03:36:37;6.97;;;2.80;;
63807;SDS011;49961;43.970;22.868;2024-03-23T03:37:38;4.13;;;2.43;;
63807;SDS011;49961;43.970;22.868;2024-03-23T03:38:38;4.57;;;2.70;;
63807;SDS011;49961;43.970;22.868;2024-03-23T03:39:39;4.37;;;2.60;;
63807;SDS011;49961;43.970;22.868;2024-03-23T03:40:41;6.50;;;2.37;;
63807;SDS011;49961;43.970;22.868;2024-03-23T03:41:42;4.50;;;2.50;;
63807;SDS011;49961;43.970;22.868;2024-03-23T03:42:42;3.83;;;2.43;;
63807;SDS011;49961;43.970;22.868;2024-03-23T03:43:43;4.37;;;2.30;;
63807;SDS011;49961;43.970;22.868;2024-03-23T03:44:43;4.70;;;2.43;;
63807;SDS011;49961;43.970;22.868;2024-03-23T03:45:51;6.27;;;2.80;;
63807;SDS011;49961;43.970;22.868;2024-03-23T03:46:52;4.63;;;2.88;;
63807;SDS011;49961;43.970;22.868;2024-03-23T03:47:53;3.97;;;2.80;;
63807;SDS011;49961;43.970;22.868;2024-03-23T03:48:54;6.00;;;2.97;;
63807;SDS011;49961;43.970;22.868;2024-03-23T03:49:54;5.50;;;2.33;;
63807;SDS011;49961;43.970;22.868;2024-03-23T03:50:55;6.17;;;2.77;;
63807;SDS011;49961;43.970;22.868;2024-03-23T03:51:56;9.20;;;2.40;;
63807;SDS011;49961;43.970;22.868;2024-03-23T03:52:56;6.07;;;3.10;;
63807;SDS011;49961;43.970;22.868;2024-03-23T03:53:57;6.13;;;2.83;;
63807;SDS011;49961;43.970;22.868;2024-03-23T03:55:01;7.17;;;2.93;;
63807;SDS011;49961;43.970;22.868;2024-03-23T03:56:02;6.03;;;2.65;;
63807;SDS011;49961;43.970;22.868;2024-03-23T03:57:03;8.40;;;2.83;;
63807;SDS011;49961;43.970;22.868;2024-03-23T03:58:04;5.63;;;2.70;;
63807;SDS011;49961;43.970;22.868;2024-03-23T03:59:07;5.28;;;2.45;;
63807;SDS011;49961;43.970;22.868;2024-03-23T04:00:08;7.93;;;2.73;;
63807;SDS011;49961;43.970;22.868;2024-03-23T04:01:11;6.35;;;3.15;;
63807;SDS011;49961;43.970;22.868;2024-03-23T04:02:11;4.73;;;2.23;;
63807;SDS011;49961;43.970;22.868;2024-03-23T04:03:12;4.60;;;2.23;;
63807;SDS011;49961;43.970;22.868;2024-03-23T04:04:12;7.37;;;3.03;;
63807;SDS011;49961;43.970;22.868;2024-03-23T04:05:14;4.18;;;2.42;;
63807;SDS011;49961;43.970;22.868;2024-03-23T04:06:20;7.23;;;2.10;;
63807;SDS011;49961;43.970;22.868;2024-03-23T04:07:21;6.82;;;2.17;;
63807;SDS011;49961;43.970;22.868;2024-03-23T04:08:23;4.43;;;2.33;;
63807;SDS011;49961;43.970;22.868;2024-03-23T04:09:24;4.35;;;2.40;;
63807;SDS011;49961;43.970;22.868;2024-03-23T04:10:24;3.50;;;2.30;;
63807;SDS011;49961;43.970;22.868;2024-03-23T04:11:26;5.65;;;2.50;;
63807;SDS011;49961;43.970;22.868;2024-03-23T04:12:27;3.87;;;2.50;;
63807;SDS011;49961;43.970;22.868;2024-03-23T04:13:27;3.77;;;2.00;;
63807;SDS011;49961;43.970;22.868;2024-03-23T04:14:28;5.13;;;2.10;;
63807;SDS011;49961;43.970;22.868;2024-03-23T04:15:28;6.33;;;3.00;;
63807;SDS011;49961;43.970;22.868;2024-03-23T04:16:29;4.50;;;2.13;;
63807;SDS011;49961;43.970;22.868;2024-03-23T04:17:34;6.30;;;3.28;;
63807;SDS011;49961;43.970;22.868;2024-03-23T04:18:35;5.57;;;2.77;;
63807;SDS011;49961;43.970;22.868;2024-03-23T04:19:35;4.27;;;2.47;;
63807;SDS011;49961;43.970;22.868;2024-03-23T04:20:36;5.27;;;2.80;;
63807;SDS011;49961;43.970;22.868;2024-03-23T04:21:37;5.40;;;2.60;;
63807;SDS011;49961;43.970;22.868;2024-03-23T04:22:38;4.63;;;2.58;;
63807;SDS011;49961;43.970;22.868;2024-03-23T04:23:38;6.47;;;2.80;;
63807;SDS011;49961;43.970;22.868;2024-03-23T04:24:39;5.00;;;2.30;;
63807;SDS011;49961;43.970;22.868;2024-03-23T04:25:39;4.40;;;2.47;;
63807;SDS011;49961;43.970;22.868;2024-03-23T04:26:40;5.83;;;2.77;;
63807;SDS011;49961;43.970;22.868;2024-03-23T04:27:41;5.20;;;2.80;;
63807;SDS011;49961;43.970;22.868;2024-03-23T04:28:42;4.00;;;1.80;;
63807;SDS011;49961;43.970;22.868;2024-03-23T04:29:46;5.43;;;2.40;;
63807;SDS011;49961;43.970;22.868;2024-03-23T04:30:47;8.60;;;2.10;;
63807;SDS011;49961;43.970;22.868;2024-03-23T04:31:49;6.00;;;2.75;;
63807;SDS011;49961;43.970;22.868;2024-03-23T04:32:49;5.83;;;2.30;;
63807;SDS011;49961;43.970;22.868;2024-03-23T04:33:49;6.93;;;2.87;;
63807;SDS011;49961;43.970;22.868;2024-03-23T04:34:50;3.30;;;2.20;;
63807;SDS011;49961;43.970;22.868;2024-03-23T04:35:50;4.90;;;2.83;;
63807;SDS011;49961;43.970;22.868;2024-03-23T04:36:51;5.80;;;2.50;;
63807;SDS011;49961;43.970;22.868;2024-03-23T04:37:51;4.60;;;2.47;;
63807;SDS011;49961;43.970;22.868;2024-03-23T04:38:53;5.07;;;2.45;;
63807;SDS011;49961;43.970;22.868;2024-03-23T04:39:53;4.90;;;2.60;;
63807;SDS011;49961;43.970;22.868;2024-03-23T04:40:55;11.80;;;2.93;;
63807;SDS011;49961;43.970;22.868;2024-03-23T04:41:56;10.82;;;2.85;;
63807;SDS011;49961;43.970;22.868;2024-03-23T04:42:56;10.63;;;3.17;;
63807;SDS011;49961;43.970;22.868;2024-03-23T04:43:57;8.70;;;2.83;;
63807;SDS011;49961;43.970;22.868;2024-03-23T04:44:57;7.60;;;2.80;;
63807;SDS011;49961;43.970;22.868;2024-03-23T04:45:58;8.10;;;2.63;;
63807;SDS011;49961;43.970;22.868;2024-03-23T04:46:59;5.23;;;2.93;;
63807;SDS011;49961;43.970;22.868;2024-03-23T04:48:00;3.55;;;1.92;;
63807;SDS011;49961;43.970;22.868;2024-03-23T04:49:01;6.70;;;2.27;;
63807;SDS011;49961;43.970;22.868;2024-03-23T04:50:04;5.63;;;2.53;;
63807;SDS011;49961;43.970;22.868;2024-03-23T04:51:05;4.72;;;2.42;;
63807;SDS011;49961;43.970;22.868;2024-03-23T04:52:06;7.27;;;2.60;;
63807;SDS011;49961;43.970;22.868;2024-03-23T04:53:07;4.33;;;2.73;;
63807;SDS011;49961;43.970;22.868;2024-03-23T04:54:07;8.15;;;2.63;;
63807;SDS011;49961;43.970;22.868;2024-03-23T04:55:08;5.13;;;2.70;;
63807;SDS011;49961;43.970;22.868;2024-03-23T04:56:09;5.97;;;2.50;;
63807;SDS011;49961;43.970;22.868;2024-03-23T04:57:10;5.67;;;2.43;;
63807;SDS011;49961;43.970;22.868;2024-03-23T04:58:10;5.57;;;2.10;;
63807;SDS011;49961;43.970;22.868;2024-03-23T04:59:11;3.97;;;2.10;;
63807;SDS011;49961;43.970;22.868;2024-03-23T05:00:11;4.53;;;2.43;;
63807;SDS011;49961;43.970;22.868;2024-03-23T05:01:17;5.60;;;2.10;;
63807;SDS011;49961;43.970;22.868;2024-03-23T05:02:17;5.70;;;2.53;;
63807;SDS011;49961;43.970;22.868;2024-03-23T05:03:18;3.87;;;2.33;;
63807;SDS011;49961;43.970;22.868;2024-03-23T05:04:19;4.38;;;2.10;;
63807;SDS011;49961;43.970;22.868;2024-03-23T05:05:20;4.00;;;2.57;;
63807;SDS011;49961;43.970;22.868;2024-03-23T05:06:20;4.47;;;2.40;;
63807;SDS011;49961;43.970;22.868;2024-03-23T05:07:21;7.07;;;2.30;;
63807;SDS011;49961;43.970;22.868;2024-03-23T05:08:21;4.13;;;2.20;;
63807;SDS011;49961;43.970;22.868;2024-03-23T05:09:22;5.27;;;2.93;;
63807;SDS011;49961;43.970;22.868;2024-03-23T05:10:22;4.07;;;2.37;;
63807;SDS011;49961;43.970;22.868;2024-03-23T05:11:23;5.13;;;2.40;;
63807;SDS011;49961;43.970;22.868;2024-03-23T05:12:23;13.13;;;2.97;;
63807;SDS011;49961;43.970;22.868;2024-03-23T05:13:24;10.77;;;2.70;;
63807;SDS011;49961;43.970;22.868;2024-03-23T05:14:24;9.20;;;2.80;;
63807;SDS011;49961;43.970;22.868;2024-03-23T05:15:25;5.60;;;3.37;;
63807;SDS011;49961;43.970;22.868;2024-03-23T05:16:26;4.03;;;2.27;;
63807;SDS011;49961;43.970;22.868;2024-03-23T05:17:27;10.05;;;2.47;;
63807;SDS011;49961;43.970;22.868;2024-03-23T05:18:27;4.27;;;2.40;;
63807;SDS011;49961;43.970;22.868;2024-03-23T05:19:28;5.78;;;2.42;;
63807;SDS011;49961;43.970;22.868;2024-03-23T05:20:29;5.97;;;3.17;;
63807;SDS011;49961;43.970;22.868;2024-03-23T05:21:29;5.53;;;2.63;;
63807;SDS011;49961;43.970;22.868;2024-03-23T05:22:30;4.40;;;2.60;;
63807;SDS011;49961;43.970;22.868;2024-03-23T05:23:31;5.63;;;2.53;;
63807;SDS011;49961;43.970;22.868;2024-03-23T05:24:31;4.73;;;2.73;;
63807;SDS011;49961;43.970;22.868;2024-03-23T05:25:31;9.87;;;2.83;;
63807;SDS011;49961;43.970;22.868;2024-03-23T05:26:32;10.00;;;3.07;;
63807;SDS011;49961;43.970;22.868;2024-03-23T05:27:34;9.05;;;3.17;;
63807;SDS011;49961;43.970;22.868;2024-03-23T05:28:34;7.87;;;2.30;;
63807;SDS011;49961;43.970;22.868;2024-03-23T05:29:35;16.20;;;3.70;;
63807;SDS011;49961;43.970;22.868;2024-03-23T05:30:35;3.97;;;2.27;;
63807;SDS011;49961;43.970;22.868;2024-03-23T05:31:36;3.93;;;2.27;;
63807;SDS011;49961;43.970;22.868;2024-03-23T05:32:36;6.93;;;2.40;;
63807;SDS011;49961;43.970;22.868;2024-03-23T05:33:40;8.45;;;2.85;;
63807;SDS011;49961;43.970;22.868;2024-03-23T05:34:41;5.10;;;2.67;;
63807;SDS011;49961;43.970;22.868;2024-03-23T05:35:41;8.43;;;2.47;;
63807;SDS011;49961;43.970;22.868;2024-03-23T05:36:42;9.83;;;2.63;;
63807;SDS011;49961;43.970;22.868;2024-03-23T05:37:43;9.80;;;3.00;;
63807;SDS011;49961;43.970;22.868;2024-03-23T05:38:44;9.63;;;2.63;;
63807;SDS011;49961;43.970;22.868;2024-03-23T05:39:45;6.63;;;2.57;;
63807;SDS011;49961;43.970;22.868;2024-03-23T05:40:52;4.53;;;2.40;;
63807;SDS011;49961;43.970;22.868;2024-03-23T05:41:56;4.53;;;2.60;;
63807;SDS011;49961;43.970;22.868;2024-03-23T05:42:57;8.40;;;2.60;;
63807;SDS011;49961;43.970;22.868;2024-03-23T05:43:58;5.07;;;2.23;;
63807;SDS011;49961;43.970;22.868;2024-03-23T05:44:58;10.17;;;2.50;;
63807;SDS011;49961;43.970;22.868;2024-03-23T05:45:59;6.57;;;2.90;;
63807;SDS011;49961;43.970;22.868;2024-03-23T05:47:01;8.57;;;2.58;;
63807;SDS011;49961;43.970;22.868;2024-03-23T05:48:02;6.47;;;2.43;;
63807;SDS011;49961;43.970;22.868;2024-03-23T05:49:02;4.97;;;1.90;;
63807;SDS011;49961;43.970;22.868;2024-03-23T05:50:03;4.40;;;2.40;;
63807;SDS011;49961;43.970;22.868;2024-03-23T05:51:04;3.70;;;2.17;;
63807;SDS011;49961;43.970;22.868;2024-03-23T05:52:05;5.17;;;1.93;;
63807;SDS011;49961;43.970;22.868;2024-03-23T05:53:05;4.63;;;2.50;;
63807;SDS011;49961;43.970;22.868;2024-03-23T05:54:06;4.60;;;2.07;;
63807;SDS011;49961;43.970;22.868;2024-03-23T05:55:07;3.70;;;2.40;;
63807;SDS011;49961;43.970;22.868;2024-03-23T05:56:07;4.30;;;2.43;;
63807;SDS011;49961;43.970;22.868;2024-03-23T05:57:09;3.38;;;2.08;;
63807;SDS011;49961;43.970;22.868;2024-03-23T05:58:10;5.50;;;2.73;;
63807;SDS011;49961;43.970;22.868;2024-03-23T05:59:10;5.70;;;2.97;;
63807;SDS011;49961;43.970;22.868;2024-03-23T06:00:11;11.13;;;2.80;;
63807;SDS011;49961;43.970;22.868;2024-03-23T06:01:18;5.45;;;2.67;;
63807;SDS011;49961;43.970;22.868;2024-03-23T06:02:19;3.73;;;2.53;;
63807;SDS011;49961;43.970;22.868;2024-03-23T06:03:19;4.27;;;2.50;;
63807;SDS011;49961;43.970;22.868;2024-03-23T06:04:21;6.25;;;2.75;;
63807;SDS011;49961;43.970;22.868;2024-03-23T06:05:22;4.72;;;2.38;;
63807;SDS011;49961;43.970;22.868;2024-03-23T06:06:23;4.13;;;2.38;;
63807;SDS011;49961;43.970;22.868;2024-03-23T06:07:24;4.63;;;2.70;;
63807;SDS011;49961;43.970;22.868;2024-03-23T06:08:24;5.00;;;2.07;;
63807;SDS011;49961;43.970;22.868;2024-03-23T06:09:25;6.07;;;2.80;;
63807;SDS011;49961;43.970;22.868;2024-03-23T06:10:25;4.77;;;2.70;;
63807;SDS011;49961;43.970;22.868;2024-03-23T06:11:26;7.37;;;3.07;;
63807;SDS011;49961;43.970;22.868;2024-03-23T06:12:27;4.03;;;2.70;;
63807;SDS011;49961;43.970;22.868;2024-03-23T06:13:27;5.27;;;3.10;;
63807;SDS011;49961;43.970;22.868;2024-03-23T06:14:30;4.95;;;3.28;;
63807;SDS011;49961;43.970;22.868;2024-03-23T06:15:30;11.83;;;3.60;;
63807;SDS011;49961;43.970;22.868;2024-03-23T06:16:31;5.63;;;3.28;;
63807;SDS011;49961;43.970;22.868;2024-03-23T06:17:32;6.03;;;3.73;;
63807;SDS011;49961;43.970;22.868;2024-03-23T06:18:33;6.00;;;3.47;;
63807;SDS011;49961;43.970;22.868;2024-03-23T06:19:34;6.13;;;4.17;;
63807;SDS011;49961;43.970;22.868;2024-03-23T06:20:34;7.17;;;3.83;;
63807;SDS011;49961;43.970;22.868;2024-03-23T06:21:35;6.67;;;3.47;;
63807;SDS011;49961;43.970;22.868;2024-03-23T06:22:36;7.60;;;4.33;;
63807;SDS011;49961;43.970;22.868;2024-03-23T06:23:37;7.07;;;4.03;;
63807;SDS011;49961;43.970;22.868;2024-03-23T06:24:37;9.07;;;4.50;;
63807;SDS011;49961;43.970;22.868;2024-03-23T06:25:38;9.87;;;4.23;;
63807;SDS011;49961;43.970;22.868;2024-03-23T06:26:38;9.33;;;4.60;;
63807;SDS011;49961;43.970;22.868;2024-03-23T06:27:39;8.43;;;4.53;;
63807;SDS011;49961;43.970;22.868;2024-03-23T06:28:39;9.17;;;4.70;;
63807;SDS011;49961;43.970;22.868;2024-03-23T06:29:40;8.73;;;4.83;;
63807;SDS011;49961;43.970;22.868;2024-03-23T06:30:40;9.03;;;5.03;;
63807;SDS011;49961;43.970;22.868;2024-03-23T06:31:41;6.77;;;4.20;;
63807;SDS011;49961;43.970;22.868;2024-03-23T06:32:41;8.37;;;4.80;;
63807;SDS011;49961;43.970;22.868;2024-03-23T06:33:42;8.48;;;4.55;;
63807;SDS011;49961;43.970;22.868;2024-03-23T06:34:43;9.57;;;4.90;;
63807;SDS011;49961;43.970;22.868;2024-03-23T06:35:49;8.37;;;5.13;;
63807;SDS011;49961;43.970;22.868;2024-03-23T06:36:51;8.70;;;4.23;;
63807;SDS011;49961;43.970;22.868;2024-03-23T06:37:52;7.33;;;4.50;;
63807;SDS011;49961;43.970;22.868;2024-03-23T06:38:52;10.37;;;4.90;;
63807;SDS011;49961;43.970;22.868;2024-03-23T06:39:53;8.53;;;4.50;;
63807;SDS011;49961;43.970;22.868;2024-03-23T06:40:53;7.80;;;4.33;;
63807;SDS011;49961;43.970;22.868;2024-03-23T06:41:54;9.77;;;4.90;;
63807;SDS011;49961;43.970;22.868;2024-03-23T06:42:55;13.93;;;5.30;;
63807;SDS011;49961;43.970;22.868;2024-03-23T06:43:55;8.50;;;5.60;;
63807;SDS011;49961;43.970;22.868;2024-03-23T06:44:56;8.77;;;5.40;;
63807;SDS011;49961;43.970;22.868;2024-03-23T06:45:56;9.60;;;4.97;;
63807;SDS011;49961;43.970;22.868;2024-03-23T06:46:57;7.93;;;5.33;;
63807;SDS011;49961;43.970;22.868;2024-03-23T06:47:58;8.97;;;5.10;;
63807;SDS011;49961;43.970;22.868;2024-03-23T06:48:58;12.63;;;5.63;;
63807;SDS011;49961;43.970;22.868;2024-03-23T06:49:59;8.67;;;5.20;;
63807;SDS011;49961;43.970;22.868;2024-03-23T06:51:03;9.30;;;5.70;;
63807;SDS011;49961;43.970;22.868;2024-03-23T06:52:04;11.80;;;5.47;;
63807;SDS011;49961;43.970;22.868;2024-03-23T06:53:04;8.77;;;5.40;;
63807;SDS011;49961;43.970;22.868;2024-03-23T06:54:05;12.77;;;5.63;;
63807;SDS011;49961;43.970;22.868;2024-03-23T06:55:06;9.33;;;5.53;;